首页
METAR-TAF:

METAR-TAF

机场 :

Boone Municipal Airport

Boone, 艾奥瓦州, 美国

纬度: 42-03N, 经度: 093-51W, 海拔: 354米

当前天气观测

该预报发布于23分钟前的20:35 UTC
风速4节,风向多变,有时为11节阵风
温度 26°C
湿度 51%
气压 1016 hPa
能見度: 16.1公里
少量云层高于5000英尺
少量云层高于6000英尺

METAR: KBNW 232035Z AUTO VRB04G11KT 10SM FEW050 FEW060 26/15 A3000 RMK AO2

时间: 15:58 (20:58 UTC)


TAF: 丢失

超过4000个机场的气象观测和天气预报(METAR&TAF报告)。

可查询的气象台以黄色和红色小点在地图上表示。

将鼠标移到小点上方,可查看气象台名称。

然后点击查看天气观测和预报。

如需切换地图:点击带黑十字的绿色按钮放大地图;点击带横线的绿色按钮缩小地图;或者点击绿色箭头查看邻近地区的地图。


METAR-TAF: